EGXZ

RAF Topcliffe Airport

Topcliffe, United Kingdom
METAR EGXZ 211250Z AUTO 26006KT 9999 OVC027/// 20/13 Q1014
Observed Flight Rules
Jul-21 @ 12:50 UTC (44 minutes ago) Marginal Visual Flight Rules
Wind Visibility Clouds
260° at 6 knots 10,000+ meters
  • Overcast at 2,700' AGL
Temperatures Readings
Current 20°C / 68°F
Dewpoint 13°C / 55°F
Humidity 64%
Altimeter 29.94" Hg
Pressure 1014 hPa
Elevation 28
METAR EGXZ 211250Z AUTO 26006KT 9999 OVC027/// 20/13 Q1014
Observed Flight Rules
Jul-21 @ 12:50 UTC
(44 minutes ago)
MVFR
Wind Visibility
260° at 6 knots 10,000+ meters
Clouds
  • Overcast at 2,700' AGL
Temperature Dewpoint
20°C / 68°F 13°C / 55°F
Humidity Altimeter Pressure
64% 29.94" Hg 1014 hPa